createdAt,value
2019-05-02T00:01:18.438Z,14.07
2019-05-02T00:03:47.517Z,14.43
2019-05-02T00:06:17.101Z,14.27
2019-05-02T00:08:46.339Z,12.27
2019-05-02T00:11:15.691Z,13.67
2019-05-02T00:13:45.046Z,14.33
2019-05-02T00:16:15.463Z,15.97
2019-05-02T00:18:44.780Z,16.73
2019-05-02T00:21:13.965Z,15.37
2019-05-02T00:23:42.959Z,13.97
2019-05-02T00:26:12.127Z,17.50
2019-05-02T00:28:43.027Z,14.23
2019-05-02T00:31:12.875Z,16.93
2019-05-02T00:33:42.504Z,15.93
2019-05-02T00:36:11.438Z,19.13
2019-05-02T00:38:40.380Z,17.73
2019-05-02T00:41:09.475Z,18.03
2019-05-02T00:43:39.030Z,17.40
2019-05-02T00:46:07.978Z,19.60
2019-05-02T00:48:54.257Z,18.67
2019-05-02T00:51:26.799Z,18.33
2019-05-02T00:53:52.903Z,17.87
2019-05-02T00:56:21.867Z,19.67
2019-05-02T00:58:50.883Z,19.80
2019-05-02T01:01:39.004Z,16.53
2019-05-02T01:04:23.409Z,19.77
2019-05-02T01:06:53.274Z,18.07
2019-05-02T01:09:25.317Z,18.17
2019-05-02T01:11:54.360Z,17.93
2019-05-02T01:14:27.100Z,18.53
2019-05-02T01:16:56.124Z,19.27
2019-05-02T01:19:24.923Z,19.37
2019-05-02T01:21:53.935Z,21.23
2019-05-02T01:24:22.920Z,22.40
2019-05-02T01:27:10.357Z,18.40
2019-05-02T01:29:47.011Z,19.77
2019-05-02T01:32:31.692Z,17.93
2019-05-02T01:35:14.968Z,21.63
2019-05-02T01:38:18.756Z,19.53
2019-05-02T01:40:53.246Z,20.03
2019-05-02T01:43:25.518Z,21.53
2019-05-02T01:45:54.757Z,19.33
2019-05-02T01:48:24.989Z,22.47
2019-05-02T01:50:54.184Z,21.97
2019-05-02T01:53:23.764Z,20.90
2019-05-02T01:55:57.749Z,20.33
2019-05-02T01:58:23.570Z,21.93
2019-05-02T02:00:52.635Z,20.27
2019-05-02T02:03:21.630Z,19.97
2019-05-02T02:05:50.960Z,19.80
2019-05-02T02:08:20.486Z,20.53
2019-05-02T02:10:50.557Z,19.10
2019-05-02T02:13:20.835Z,20.70
2019-05-02T02:15:49.839Z,20.33
2019-05-02T02:18:22.393Z,21.70
2019-05-02T02:21:08.586Z,19.53
2019-05-02T02:23:56.639Z,20.73
2019-05-02T02:26:25.739Z,20.50
2019-05-02T02:28:54.793Z,19.97
2019-05-02T02:31:23.852Z,20.87
2019-05-02T02:33:52.816Z,18.13
2019-05-02T02:36:31.028Z,18.87
2019-05-02T02:38:52.712Z,17.87
2019-05-02T02:41:21.661Z,18.30
2019-05-02T02:44:08.294Z,22.80
2019-05-02T02:46:40.102Z,16.43
2019-05-02T02:49:13.867Z,19.17
2019-05-02T02:51:39.796Z,20.30
2019-05-02T02:54:08.833Z,14.73
2019-05-02T02:56:40.442Z,14.67
2019-05-02T02:59:08.511Z,18.20
2019-05-02T03:01:37.535Z,21.37
2019-05-02T03:04:09.709Z,17.67
2019-05-02T03:06:38.415Z,17.00
2019-05-02T03:09:07.981Z,17.43
2019-05-02T03:11:45.483Z,16.77
2019-05-02T03:14:20.256Z,20.03
2019-05-02T03:16:49.529Z,15.63
2019-05-02T03:19:21.471Z,17.43
2019-05-02T03:22:00.783Z,17.77
2019-05-02T03:24:27.158Z,16.43
2019-05-02T03:26:58.492Z,17.17
2019-05-02T03:29:39.755Z,14.10
2019-05-02T03:32:22.062Z,14.27
2019-05-02T03:34:45.441Z,15.73
2019-05-02T03:37:03.136Z,14.73
2019-05-02T03:39:30.432Z,14.23
2019-05-02T03:42:02.792Z,13.83
2019-05-02T03:44:31.058Z,15.63
2019-05-02T03:47:02.363Z,13.97
2019-05-02T03:49:30.905Z,15.67
2019-05-02T03:52:02.582Z,18.03
2019-05-02T03:54:30.757Z,14.67
2019-05-02T03:56:59.765Z,16.10
2019-05-02T03:59:37.311Z,15.50
2019-05-02T04:01:59.614Z,14.30
2019-05-02T04:04:29.938Z,15.40
2019-05-02T04:07:01.036Z,13.23
2019-05-02T04:09:41.836Z,17.87
2019-05-02T04:12:11.527Z,16.43
2019-05-02T04:14:39.325Z,21.07
2019-05-02T04:17:10.279Z,14.70
2019-05-02T04:19:39.566Z,13.33
2019-05-02T04:22:11.812Z,15.90
2019-05-02T04:24:39.616Z,14.67
2019-05-02T04:27:08.885Z,17.20
2019-05-02T04:29:38.529Z,16.87
2019-05-02T04:32:11.683Z,15.23
2019-05-02T04:34:38.227Z,15.27
2019-05-02T04:37:07.235Z,14.50
2019-05-02T04:39:39.014Z,14.50
2019-05-02T04:42:13.154Z,15.70
2019-05-02T04:44:44.357Z,14.43
2019-05-02T04:47:16.624Z,15.03
2019-05-02T04:49:39.453Z,13.10
2019-05-02T04:52:12.353Z,12.97
2019-05-02T04:54:39.648Z,15.37
2019-05-02T04:57:08.838Z,13.40
2019-05-02T04:59:39.434Z,13.27
2019-05-02T05:02:09.442Z,13.13
2019-05-02T05:04:44.803Z,13.53
2019-05-02T05:07:09.575Z,13.83
2019-05-02T05:09:39.957Z,13.73
2019-05-02T05:12:09.621Z,11.90
2019-05-02T05:14:43.110Z,12.77
2019-05-02T05:17:09.348Z,12.70
2019-05-02T05:19:38.415Z,14.57
2019-05-02T05:22:11.574Z,14.77
2019-05-02T05:24:43.462Z,14.80
2019-05-02T05:27:13.236Z,13.43
2019-05-02T05:29:45.908Z,11.67
2019-05-02T05:32:14.062Z,13.87
2019-05-02T05:34:43.095Z,13.97
2019-05-02T05:37:13.576Z,14.30
2019-05-02T05:39:43.075Z,11.47
2019-05-02T05:42:13.175Z,13.37
2019-05-02T05:44:42.157Z,13.90
2019-05-02T05:47:16.602Z,12.43
2019-05-02T05:49:41.772Z,12.93
2019-05-02T05:52:10.726Z,12.37
2019-05-02T05:54:41.979Z,12.23
2019-05-02T05:57:12.131Z,11.17
2019-05-02T05:59:41.164Z,11.90
2019-05-02T06:02:13.534Z,9.63
2019-05-02T06:04:40.974Z,10.93
2019-05-02T06:07:10.074Z,10.90
2019-05-02T06:09:39.544Z,12.00
2019-05-02T06:12:08.646Z,13.03
2019-05-02T06:14:37.691Z,13.67
2019-05-02T06:17:06.681Z,11.47
2019-05-02T06:19:35.626Z,11.90
2019-05-02T06:22:04.779Z,10.37
2019-05-02T06:24:34.090Z,10.20
2019-05-02T06:27:03.470Z,10.13
2019-05-02T06:29:32.409Z,8.80
2019-05-02T06:32:02.897Z,9.10
2019-05-02T06:34:32.038Z,10.30
2019-05-02T06:37:01.548Z,11.13
2019-05-02T06:39:32.078Z,11.03
2019-05-02T06:42:01.248Z,9.90
2019-05-02T06:44:30.165Z,11.83
2019-05-02T06:47:03.916Z,16.10
2019-05-02T06:49:29.810Z,10.30
2019-05-02T06:51:58.691Z,12.57
2019-05-02T06:54:27.756Z,12.90
2019-05-02T06:56:56.695Z,11.47
2019-05-02T06:59:25.619Z,10.77
2019-05-02T07:01:57.427Z,11.27
2019-05-02T07:04:25.550Z,12.70
2019-05-02T07:06:59.025Z,11.67
2019-05-02T07:09:39.565Z,10.10
2019-05-02T07:11:57.410Z,15.83
2019-05-02T07:14:26.738Z,12.00
2019-05-02T07:17:05.378Z,10.93
2019-05-02T07:19:35.899Z,10.23
2019-05-02T07:22:05.257Z,9.97
2019-05-02T07:24:34.432Z,9.73
2019-05-02T07:27:03.542Z,12.00
2019-05-02T07:29:32.517Z,9.27
2019-05-02T07:32:01.487Z,10.30
2019-05-02T07:34:30.551Z,10.20
2019-05-02T07:36:59.571Z,10.50
2019-05-02T07:39:29.344Z,11.93
2019-05-02T07:42:00.470Z,13.43
2019-05-02T07:44:32.551Z,16.10
2019-05-02T07:47:02.669Z,17.00
2019-05-02T07:49:32.472Z,13.13
2019-05-02T07:52:03.150Z,15.63
2019-05-02T07:54:32.082Z,18.30
2019-05-02T07:57:02.453Z,15.03
2019-05-02T07:59:31.679Z,13.47
2019-05-02T08:02:00.620Z,15.37
2019-05-02T08:04:30.143Z,14.93
2019-05-02T08:06:59.185Z,14.83
2019-05-02T08:09:28.328Z,16.23
2019-05-02T08:11:57.426Z,16.53
2019-05-02T08:14:29.330Z,14.50
2019-05-02T08:17:05.341Z,15.57
2019-05-02T08:19:27.913Z,20.47
2019-05-02T08:21:56.914Z,16.43
2019-05-02T08:24:25.818Z,15.27
2019-05-02T08:27:22.846Z,18.80
2019-05-02T08:29:52.061Z,15.77
2019-05-02T08:32:21.015Z,16.20
2019-05-02T08:34:51.603Z,14.67
2019-05-02T08:37:20.605Z,16.33
2019-05-02T08:39:49.647Z,15.57
2019-05-02T08:42:18.730Z,17.10
2019-05-02T08:44:51.362Z,16.37
2019-05-02T08:47:19.316Z,19.00
2019-05-02T08:49:49.272Z,13.90
2019-05-02T08:52:19.133Z,13.00
2019-05-02T08:54:48.043Z,15.40
2019-05-02T08:57:18.866Z,16.03
2019-05-02T08:59:47.999Z,16.63
2019-05-02T09:02:21.173Z,13.93
2019-05-02T09:04:57.916Z,14.30
2019-05-02T09:07:18.485Z,13.57
2019-05-02T09:09:47.599Z,15.43
2019-05-02T09:12:16.603Z,15.90
2019-05-02T09:14:45.711Z,15.63
2019-05-02T09:17:16.667Z,18.90
2019-05-02T09:19:58.840Z,16.47
2019-05-02T09:22:16.880Z,15.53
2019-05-02T09:24:46.439Z,14.23
2019-05-02T09:27:15.365Z,17.53
2019-05-02T09:29:45.870Z,16.20
2019-05-02T09:32:17.180Z,17.17
2019-05-02T09:34:45.639Z,16.20
2019-05-02T09:37:14.823Z,20.20
2019-05-02T09:39:43.782Z,16.73
2019-05-02T09:42:15.674Z,17.97
2019-05-02T09:44:43.373Z,16.27
2019-05-02T09:47:22.262Z,15.43
2019-05-02T09:50:06.995Z,18.20
2019-05-02T09:52:39.681Z,19.37
2019-05-02T09:55:08.246Z,16.17
2019-05-02T09:57:37.417Z,15.70
2019-05-02T10:00:12.789Z,15.57
2019-05-02T10:02:42.158Z,16.80
2019-05-02T10:05:12.481Z,19.90
2019-05-02T10:07:42.011Z,18.17
2019-05-02T10:10:12.744Z,16.60
2019-05-02T10:12:42.737Z,19.87
2019-05-02T10:15:14.610Z,18.70
2019-05-02T10:17:46.752Z,20.57
2019-05-02T10:20:14.995Z,16.70
2019-05-02T10:22:43.940Z,21.60
2019-05-02T10:25:13.732Z,19.70
2019-05-02T10:27:46.032Z,20.00
2019-05-02T10:30:15.774Z,18.90
2019-05-02T10:32:47.216Z,19.03
2019-05-02T10:35:18.418Z,19.33
2019-05-02T10:37:47.400Z,20.33
2019-05-02T10:40:17.340Z,22.07
2019-05-02T10:42:46.716Z,18.03
2019-05-02T10:45:16.814Z,21.23
2019-05-02T10:47:45.977Z,19.80
2019-05-02T10:50:26.106Z,22.63
2019-05-02T10:52:55.055Z,20.60
2019-05-02T10:55:24.399Z,20.10
2019-05-02T10:57:53.341Z,22.10
2019-05-02T11:00:25.203Z,20.30
2019-05-02T11:03:12.265Z,19.47
2019-05-02T11:05:43.388Z,20.80
2019-05-02T11:08:12.323Z,19.20
2019-05-02T11:10:42.305Z,23.23
2019-05-02T11:13:16.772Z,20.80
2019-05-02T11:16:12.432Z,20.90
2019-05-02T11:18:53.189Z,20.27
2019-05-02T11:21:22.906Z,22.30
2019-05-02T11:23:52.682Z,18.83
2019-05-02T11:26:25.057Z,19.27
2019-05-02T11:28:52.950Z,18.53
2019-05-02T11:31:22.121Z,19.67
2019-05-02T11:33:52.654Z,20.37
2019-05-02T11:36:22.482Z,17.17
2019-05-02T11:38:59.943Z,19.40
2019-05-02T11:41:22.694Z,17.93
2019-05-02T11:43:54.174Z,21.60
2019-05-02T11:46:22.277Z,19.57
2019-05-02T11:48:56.231Z,18.17
2019-05-02T11:51:22.706Z,18.13
2019-05-02T11:53:52.608Z,16.33
2019-05-02T11:56:22.400Z,18.50
2019-05-02T11:58:52.794Z,16.77
2019-05-02T12:01:35.443Z,17.87
2019-05-02T12:03:53.093Z,19.50
2019-05-02T12:06:22.660Z,14.53
2019-05-02T12:08:52.793Z,15.60
2019-05-02T12:11:22.819Z,16.77
2019-05-02T12:13:56.769Z,17.53
2019-05-02T12:16:23.256Z,16.83
2019-05-02T12:18:53.744Z,20.90
2019-05-02T12:21:23.138Z,17.57
2019-05-02T12:23:52.640Z,14.90
2019-05-02T12:26:22.297Z,15.90
2019-05-02T12:28:52.682Z,18.27
2019-05-02T12:31:32.741Z,19.60
2019-05-02T12:34:04.288Z,15.80
2019-05-02T12:36:33.637Z,17.37
2019-05-02T12:39:04.287Z,15.80
2019-05-02T12:41:33.596Z,16.10
2019-05-02T12:44:02.641Z,20.33
2019-05-02T12:46:31.915Z,15.47
2019-05-02T12:49:02.797Z,13.57
2019-05-02T12:51:32.298Z,17.93
2019-05-02T12:54:02.234Z,16.20
2019-05-02T12:56:32.543Z,16.53
2019-05-02T12:59:02.512Z,18.10
2019-05-02T13:01:32.936Z,15.63
2019-05-02T13:04:12.689Z,16.27
2019-05-02T13:06:42.271Z,14.23
2019-05-02T13:09:13.115Z,16.80
2019-05-02T13:12:05.624Z,16.33
2019-05-02T13:14:34.819Z,16.63
2019-05-02T13:17:05.753Z,15.30
2019-05-02T13:19:40.200Z,16.17
2019-05-02T13:22:12.972Z,15.33
2019-05-02T13:24:46.895Z,15.83
2019-05-02T13:27:17.066Z,12.70
2019-05-02T13:29:46.938Z,13.27
2019-05-02T13:32:31.967Z,12.63
2019-05-02T13:35:22.168Z,14.17
2019-05-02T13:37:52.597Z,14.87
2019-05-02T13:40:29.691Z,14.07
2019-05-02T13:42:58.828Z,12.13
2019-05-02T13:45:55.903Z,14.43
2019-05-02T13:48:25.086Z,13.70
2019-05-02T13:50:54.278Z,13.37
2019-05-02T13:53:25.436Z,12.23
2019-05-02T13:56:12.971Z,11.93
2019-05-02T13:58:42.519Z,13.37
2019-05-02T14:01:11.784Z,12.07
2019-05-02T14:03:42.094Z,14.97
2019-05-02T14:06:12.364Z,11.60
2019-05-02T14:08:53.380Z,11.27
2019-05-02T14:11:43.358Z,11.90
2019-05-02T14:14:12.335Z,14.53
2019-05-02T14:16:41.881Z,10.87
2019-05-02T14:19:12.603Z,11.07
2019-05-02T14:21:42.219Z,11.43
2019-05-02T14:24:11.876Z,11.80
2019-05-02T14:26:42.847Z,14.17
2019-05-02T14:29:14.594Z,13.93
2019-05-02T14:31:42.289Z,13.23
2019-05-02T14:34:29.379Z,12.83
2019-05-02T14:36:59.436Z,12.87
2019-05-02T14:39:28.955Z,13.70
2019-05-02T14:41:58.069Z,13.00
2019-05-02T14:44:50.795Z,13.67
2019-05-02T14:46:58.016Z,12.90
2019-05-02T14:49:27.196Z,12.60
2019-05-02T14:51:57.181Z,12.93
2019-05-02T14:54:26.888Z,13.10
2019-05-02T14:57:03.407Z,12.60
2019-05-02T14:59:32.444Z,15.40
2019-05-02T15:02:07.558Z,12.13
2019-05-02T15:04:38.096Z,14.93
2019-05-02T15:07:05.963Z,17.00
2019-05-02T15:09:36.371Z,15.50
2019-05-02T15:12:14.013Z,13.87
2019-05-02T15:14:36.412Z,22.70
2019-05-02T15:17:06.247Z,15.87
2019-05-02T15:19:35.190Z,14.87
2019-05-02T15:22:04.411Z,16.03
2019-05-02T15:24:37.365Z,17.83
2019-05-02T15:27:11.836Z,15.90
2019-05-02T15:29:35.353Z,16.07
2019-05-02T15:32:37.368Z,16.70
2019-05-02T15:35:26.868Z,16.90
2019-05-02T15:37:56.722Z,16.33
2019-05-02T15:40:43.187Z,18.70
2019-05-02T15:43:02.846Z,15.40
2019-05-02T15:45:28.237Z,16.10
2019-05-02T15:47:57.196Z,15.20
2019-05-02T15:50:26.305Z,16.93
2019-05-02T15:53:09.401Z,17.77
2019-05-02T15:55:39.702Z,15.30
2019-05-02T15:58:04.698Z,13.70
2019-05-02T16:00:37.384Z,16.40
2019-05-02T16:03:06.644Z,19.20
2019-05-02T16:05:41.082Z,13.70
2019-05-02T16:08:08.952Z,16.17
2019-05-02T16:10:38.781Z,15.40
2019-05-02T16:13:13.512Z,14.87
2019-05-02T16:15:40.476Z,18.30
2019-05-02T16:18:09.423Z,18.00
2019-05-02T16:21:04.681Z,17.73
2019-05-02T16:23:31.792Z,19.77
2019-05-02T16:26:01.347Z,16.23
2019-05-02T16:28:27.854Z,18.13
2019-05-02T16:30:59.291Z,17.07
2019-05-02T16:33:28.342Z,14.03
2019-05-02T16:35:57.304Z,15.87
2019-05-02T16:38:30.923Z,19.97
2019-05-02T16:40:57.451Z,15.73
2019-05-02T16:43:28.203Z,16.93
2019-05-02T16:45:57.259Z,18.00
2019-05-02T16:48:30.550Z,19.50
2019-05-02T16:50:57.182Z,18.77
2019-05-02T16:53:26.404Z,24.17
2019-05-02T16:55:58.467Z,18.37
2019-05-02T16:58:25.919Z,19.10
2019-05-02T17:00:54.877Z,19.27
2019-05-02T17:03:26.339Z,25.40
2019-05-02T17:05:54.689Z,21.17
2019-05-02T17:08:49.446Z,21.07
2019-05-02T17:11:22.781Z,22.53
2019-05-02T17:13:52.727Z,22.53
2019-05-02T17:16:23.131Z,19.57
2019-05-02T17:18:55.476Z,22.07
2019-05-02T17:21:26.785Z,20.73
2019-05-02T17:23:53.408Z,19.20
2019-05-02T17:26:22.855Z,19.47
2019-05-02T17:28:52.187Z,22.03
2019-05-02T17:31:23.032Z,21.30
2019-05-02T17:33:52.967Z,19.13
2019-05-02T17:36:28.497Z,21.03
2019-05-02T17:38:54.482Z,17.93
2019-05-02T17:41:23.568Z,20.30
2019-05-02T17:43:52.667Z,22.37
2019-05-02T17:46:25.736Z,23.80
2019-05-02T17:48:53.906Z,20.30
2019-05-02T17:51:37.744Z,21.77
2019-05-02T17:54:07.585Z,24.27
2019-05-02T17:56:36.878Z,23.23
2019-05-02T17:59:05.899Z,22.17
2019-05-02T18:01:38.767Z,19.50
2019-05-02T18:04:13.959Z,22.03
2019-05-02T18:06:38.686Z,22.43
2019-05-02T18:09:08.970Z,21.43
2019-05-02T18:11:38.016Z,22.87
2019-05-02T18:14:18.974Z,20.80
2019-05-02T18:16:39.325Z,23.93
2019-05-02T18:19:08.408Z,22.27
2019-05-02T18:21:37.562Z,23.53
2019-05-02T18:24:06.638Z,22.10
2019-05-02T18:26:35.634Z,23.33
2019-05-02T18:29:06.870Z,28.90
2019-05-02T18:31:40.112Z,23.20
2019-05-02T18:34:06.172Z,29.30
2019-05-02T18:36:35.115Z,23.93
2019-05-02T18:39:06.698Z,23.60
2019-05-02T18:41:37.337Z,21.63
2019-05-02T18:44:06.923Z,26.20
2019-05-02T18:46:36.698Z,26.10
2019-05-02T18:49:06.635Z,23.80
2019-05-02T18:51:35.648Z,26.67
2019-05-02T18:54:07.475Z,23.40
2019-05-02T18:56:42.863Z,25.00
2019-05-02T18:59:06.595Z,25.33
2019-05-02T19:01:37.193Z,26.07
2019-05-02T19:04:06.334Z,27.23
2019-05-02T19:06:36.273Z,29.87
2019-05-02T19:09:09.203Z,28.70
2019-05-02T19:11:38.637Z,27.40
2019-05-02T19:14:07.748Z,29.47
2019-05-02T19:16:37.032Z,28.47
2019-05-02T19:19:06.378Z,29.77
2019-05-02T19:21:39.221Z,29.83
2019-05-02T19:24:06.898Z,31.90
2019-05-02T19:26:36.182Z,29.10
2019-05-02T19:29:27.191Z,29.77
2019-05-02T19:31:56.679Z,29.30
2019-05-02T19:34:26.956Z,32.57
2019-05-02T19:36:58.076Z,30.17
2019-05-02T19:39:32.092Z,29.07
2019-05-02T19:42:01.759Z,30.53
2019-05-02T19:44:32.069Z,30.33
2019-05-02T19:47:02.555Z,26.57
2019-05-02T19:49:32.905Z,27.07
2019-05-02T19:52:02.351Z,27.07
2019-05-02T19:54:39.157Z,28.93
2019-05-02T19:57:01.972Z,26.33
2019-05-02T19:59:32.121Z,27.50
2019-05-02T20:02:04.758Z,25.60
2019-05-02T20:04:32.730Z,26.50
2019-05-02T20:07:02.217Z,26.93
2019-05-02T20:09:31.940Z,27.97
2019-05-02T20:12:05.997Z,26.70
2019-05-02T20:14:32.114Z,25.80
2019-05-02T20:17:02.304Z,23.23
2019-05-02T20:19:34.811Z,26.03
2019-05-02T20:22:15.941Z,26.97
2019-05-02T20:25:12.386Z,25.27
2019-05-02T20:27:42.177Z,26.17
2019-05-02T20:30:12.067Z,25.43
2019-05-02T20:32:42.771Z,25.87
2019-05-02T20:35:12.540Z,25.83
2019-05-02T20:37:42.007Z,26.03
2019-05-02T20:40:26.356Z,26.90
2019-05-02T20:42:55.853Z,24.67
2019-05-02T20:45:24.992Z,27.23
2019-05-02T20:47:55.172Z,26.67
2019-05-02T20:50:24.354Z,26.83
2019-05-02T20:52:53.515Z,26.13
2019-05-02T20:55:22.651Z,28.47
2019-05-02T20:57:52.736Z,28.17
2019-05-02T21:00:24.311Z,26.23
2019-05-02T21:02:53.405Z,29.20
2019-05-02T21:05:26.922Z,25.87
2019-05-02T21:08:18.175Z,26.60
2019-05-02T21:10:47.952Z,26.13
2019-05-02T21:13:17.543Z,29.23
2019-05-02T21:15:46.501Z,26.73
2019-05-02T21:18:15.784Z,28.93
2019-05-02T21:20:44.817Z,27.83
2019-05-02T21:23:13.763Z,30.17
2019-05-02T21:25:42.815Z,26.53
2019-05-02T21:28:12.203Z,26.93
2019-05-02T21:30:41.588Z,28.77
2019-05-02T21:33:35.799Z,29.90
2019-05-02T21:36:05.580Z,26.90
2019-05-02T21:38:34.683Z,30.73
2019-05-02T21:41:05.432Z,29.47
2019-05-02T21:43:34.401Z,28.60
2019-05-02T21:46:06.002Z,30.07
2019-05-02T21:48:34.854Z,31.53
2019-05-02T21:51:09.038Z,28.50
2019-05-02T21:53:56.183Z,30.63
2019-05-02T21:56:38.890Z,33.03
2019-05-02T21:59:09.140Z,27.60
2019-05-02T22:01:52.578Z,34.40
2019-05-02T22:04:22.429Z,22.20
2019-05-02T22:06:52.367Z,21.07
2019-05-02T22:09:23.168Z,18.33
2019-05-02T22:11:52.724Z,14.37
2019-05-02T22:14:22.393Z,14.20
2019-05-02T22:16:52.896Z,20.87
2019-05-02T22:19:22.401Z,15.20
2019-05-02T22:21:52.471Z,11.13
2019-05-02T22:24:21.667Z,7.40
2019-05-02T22:26:52.426Z,7.50
2019-05-02T22:29:21.827Z,7.50
2019-05-02T22:31:54.224Z,6.60
2019-05-02T22:34:22.077Z,5.60
2019-05-02T22:36:53.901Z,5.27
2019-05-02T22:39:45.926Z,5.53
2019-05-02T22:42:14.883Z,4.97
2019-05-02T22:44:44.127Z,7.13
2019-05-02T22:47:14.106Z,5.87
2019-05-02T22:49:43.216Z,3.90
2019-05-02T22:52:14.414Z,6.40
2019-05-02T22:54:42.904Z,5.00
2019-05-02T22:57:14.338Z,7.07
2019-05-02T22:59:42.675Z,5.83
2019-05-02T23:02:12.776Z,5.13
2019-05-02T23:04:41.844Z,4.47
2019-05-02T23:07:12.645Z,4.70
2019-05-02T23:09:43.636Z,6.87
2019-05-02T23:12:13.169Z,6.83
2019-05-02T23:14:42.486Z,6.47
2019-05-02T23:17:12.801Z,6.83
2019-05-02T23:19:42.450Z,4.90
2019-05-02T23:22:12.747Z,6.03
2019-05-02T23:25:14.287Z,7.47
2019-05-02T23:27:51.810Z,6.60
2019-05-02T23:30:23.352Z,8.40
2019-05-02T23:32:52.511Z,6.33
2019-05-02T23:35:21.448Z,5.77
2019-05-02T23:37:52.810Z,4.50
2019-05-02T23:40:21.149Z,5.40
2019-05-02T23:42:52.284Z,7.00
2019-05-02T23:45:22.552Z,6.30
2019-05-02T23:47:52.768Z,6.97
2019-05-02T23:50:22.848Z,9.70
2019-05-02T23:52:52.404Z,6.13
2019-05-02T23:55:22.865Z,7.40
2019-05-02T23:57:52.380Z,7.63
